Time;durP1;ratioP1;P1;durP2;ratioP2;P2;SDS_P1;SDS_P2;PMS_P1;PMS_P2;Temp;Humidity;BMP_temperature;BMP_pressure;BME280_temperature;BME280_humidity;BME280_pressure;Samples;Min_cycle;Max_cycle;Signal;HPM_P1;HPM_P2
2021/08/30 00:00:21;;;;;;;;;;;;;;;31.61;26.41;94049.34;4917000;29;19926;-49
2021/08/30 00:02:48;;;;;;;;;;;;;;;31.56;26.24;94044.47;4916219;29;19927;-50
2021/08/30 00:05:15;;;;;;;;;;;;;;;31.68;26.08;94053.78;4916155;29;20254;-53
2021/08/30 00:07:42;;;;;;;;;;;;;;;31.59;26.47;94051.72;4916978;29;19930;-50
2021/08/30 00:10:09;;;;;;;;;;;;;;;31.67;26.27;94055.72;4916191;29;20584;-52
2021/08/30 00:12:40;;;;;;;;;;;;;;;31.45;26.54;94054.78;4913438;29;19930;-52
2021/08/30 00:15:10;;;;;;;;;;;;;;;31.45;26.57;94062.91;4910790;29;19930;-50
2021/08/30 00:17:37;;;;;;;;;;;;;;;31.49;26.05;94063.56;4935174;29;19933;-60
2021/08/30 00:20:05;;;;;;;;;;;;;;;31.43;26.35;94063.31;4934890;29;19923;-49
2021/08/30 00:22:31;;;;;;;;;;;;;;;31.39;26.59;94059.97;4934331;29;19923;-54
2021/08/30 00:25:00;;;;;;;;;;;;;;;31.47;26.18;94061.28;4931833;29;19934;-50
2021/08/30 00:27:28;;;;;;;;;;;;;;;31.26;26.18;94062.63;4915744;29;19954;-52
2021/08/30 00:29:55;;;;;;;;;;;;;;;31.28;26.78;94065.66;4915976;29;19934;-51
2021/08/30 00:32:22;;;;;;;;;;;;;;;31.35;26.37;94075.50;4915147;29;19934;-52
2021/08/30 00:34:49;;;;;;;;;;;;;;;31.28;26.49;94071.06;4914945;29;20346;-50
2021/08/30 00:37:16;;;;;;;;;;;;;;;31.33;26.46;94071.72;4916706;29;20306;-50
2021/08/30 00:39:44;;;;;;;;;;;;;;;31.52;26.25;94078.94;4917099;29;20334;-52
2021/08/30 00:42:12;;;;;;;;;;;;;;;31.24;26.27;94081.19;4923752;29;19919;-50
2021/08/30 00:44:38;;;;;;;;;;;;;;;31.34;26.41;94078.63;4923547;29;19919;-51
2021/08/30 00:47:05;;;;;;;;;;;;;;;31.40;25.95;94076.94;4917883;29;19920;-52
2021/08/30 00:49:32;;;;;;;;;;;;;;;31.22;26.38;94074.69;4914625;29;19931;-53
2021/08/30 00:51:59;;;;;;;;;;;;;;;31.35;26.38;94080.16;4913529;29;19923;-52
2021/08/30 00:54:26;;;;;;;;;;;;;;;31.16;26.28;94074.44;4917312;29;19927;-54
2021/08/30 00:56:53;;;;;;;;;;;;;;;31.11;26.13;94079.56;4913106;29;20342;-58
2021/08/30 00:59:22;;;;;;;;;;;;;;;31.30;26.03;94081.44;4916572;29;19931;-66
2021/08/30 01:01:50;;;;;;;;;;;;;;;31.31;26.12;94084.88;4912487;29;19949;-52
2021/08/30 01:04:17;;;;;;;;;;;;;;;31.15;26.05;94083.69;4917466;29;20374;-52
2021/08/30 01:06:46;;;;;;;;;;;;;;;31.19;25.84;94084.38;4918493;29;19922;-52
2021/08/30 01:09:27;;;;;;;;;;;;;;;31.28;26.05;94084.56;4919907;29;19934;-51
2021/08/30 01:12:14;;;;;;;;;;;;;;;31.06;26.32;94088.94;4927387;29;19927;-51
2021/08/30 01:14:47;;;;;;;;;;;;;;;31.04;26.36;94088.63;4916335;29;19923;-49
2021/08/30 01:17:14;;;;;;;;;;;;;;;31.22;25.74;94098.97;4913561;29;19919;-52
2021/08/30 01:20:01;;;;;;;;;;;;;;;31.17;25.77;94097.56;4916423;29;19923;-51
2021/08/30 01:22:29;;;;;;;;;;;;;;;31.11;25.79;94099.22;4916754;29;19920;-50
2021/08/30 01:24:56;;;;;;;;;;;;;;;31.11;26.08;94099.22;4912473;29;19930;-50
2021/08/30 01:27:24;;;;;;;;;;;;;;;31.16;25.84;94097.94;4914292;29;19935;-50
2021/08/30 01:30:11;;;;;;;;;;;;;;;31.08;25.68;94107.41;4916714;29;19923;-51
2021/08/30 01:32:42;;;;;;;;;;;;;;;31.02;25.79;94101.78;4931780;29;20238;-52
2021/08/30 01:35:10;;;;;;;;;;;;;;;31.04;25.87;94110.22;4905698;29;19982;-51
2021/08/30 01:37:38;;;;;;;;;;;;;;;31.24;25.39;94102.78;4905365;29;19919;-51
2021/08/30 01:40:05;;;;;;;;;;;;;;;31.06;25.58;94110.53;4897255;29;19920;-52
2021/08/30 01:42:33;;;;;;;;;;;;;;;30.89;25.91;94103.63;4906453;29;19919;-50
2021/08/30 01:45:00;;;;;;;;;;;;;;;30.99;25.69;94108.03;4917217;29;19927;-52
2021/08/30 01:47:26;;;;;;;;;;;;;;;30.84;26.24;94104.91;4914864;29;19925;-52
2021/08/30 01:50:03;;;;;;;;;;;;;;;31.10;25.76;94097.72;4921818;29;19923;-51
2021/08/30 01:52:34;;;;;;;;;;;;;;;30.95;25.76;94107.31;4898239;29;20017;-51
2021/08/30 02:03:29;;;;;;;;;;;;;;;30.90;25.79;94110.53;4919827;29;19919;-53
2021/08/30 02:05:57;;;;;;;;;;;;;;;30.85;25.98;94102.97;4918302;29;19923;-52
2021/08/30 02:08:24;;;;;;;;;;;;;;;30.86;25.88;94099.06;4917266;29;19927;-49
2021/08/30 02:10:52;;;;;;;;;;;;;;;30.97;25.38;94107.69;4916766;29;19923;-56
2021/08/30 02:13:19;;;;;;;;;;;;;;;30.86;25.94;94102.53;4916543;29;20231;-50
2021/08/30 02:15:47;;;;;;;;;;;;;;;30.88;25.73;94110.97;4918057;29;20234;-51
2021/08/30 02:18:22;;;;;;;;;;;;;;;30.71;25.86;94109.47;4916354;29;19938;-49
2021/08/30 02:20:54;;;;;;;;;;;;;;;30.88;25.51;94112.91;4917983;29;20204;-52
2021/08/30 02:23:23;;;;;;;;;;;;;;;30.73;25.89;94109.03;4902198;29;19974;-49
2021/08/30 02:25:50;;;;;;;;;;;;;;;30.82;25.55;94114.59;4915109;29;19930;-50
2021/08/30 02:28:16;;;;;;;;;;;;;;;30.88;25.66;94118.28;4918581;29;19927;-52
2021/08/30 02:30:43;;;;;;;;;;;;;;;30.92;25.53;94114.34;4922790;29;19927;-50
2021/08/30 02:33:10;;;;;;;;;;;;;;;30.82;25.52;94125.38;4922590;29;19926;-52
2021/08/30 02:35:38;;;;;;;;;;;;;;;30.73;25.69;94122.53;4922611;29;19934;-56
2021/08/30 02:38:05;;;;;;;;;;;;;;;30.61;25.89;94126.63;4922491;29;20230;-49
2021/08/30 02:40:32;;;;;;;;;;;;;;;30.85;25.38;94127.25;4939289;29;19923;-50
2021/08/30 02:43:00;;;;;;;;;;;;;;;30.80;25.26;94122.34;4916147;29;20311;-52
2021/08/30 02:45:27;;;;;;;;;;;;;;;30.61;25.61;94123.94;4918651;29;20000;-52
2021/08/30 02:47:54;;;;;;;;;;;;;;;30.92;25.21;94127.06;4920821;29;20238;-50
2021/08/30 02:50:21;;;;;;;;;;;;;;;30.83;25.36;94121.50;4922535;29;19926;-50
2021/08/30 02:52:48;;;;;;;;;;;;;;;30.68;25.06;94127.22;4922345;29;19923;-51
2021/08/30 02:55:15;;;;;;;;;;;;;;;30.99;24.66;94135.00;4914945;29;19938;-50
2021/08/30 02:57:42;;;;;;;;;;;;;;;30.94;24.72;94128.16;4917317;29;20315;-52
2021/08/30 03:00:10;;;;;;;;;;;;;;;30.99;24.82;94143.09;4908624;29;20307;-49
2021/08/30 03:02:37;;;;;;;;;;;;;;;30.62;25.30;94133.53;4922216;29;19919;-52
2021/08/30 03:05:04;;;;;;;;;;;;;;;30.77;25.04;94134.00;4936802;29;19930;-50
2021/08/30 03:07:30;;;;;;;;;;;;;;;30.56;24.97;94135.97;4916278;29;19923;-50
2021/08/30 03:09:58;;;;;;;;;;;;;;;30.68;24.90;94131.84;4907127;29;19934;-54
2021/08/30 03:12:25;;;;;;;;;;;;;;;31.03;24.39;94138.38;4916824;29;19928;-58
2021/08/30 03:14:53;;;;;;;;;;;;;;;30.39;25.00;94137.09;4929399;29;19923;-47
2021/08/30 03:17:20;;;;;;;;;;;;;;;32.40;23.05;94139.81;4931042;29;19919;-57
2021/08/30 03:19:47;;;;;;;;;;;;;;;33.66;21.57;94136.22;4903076;29;19931;-54
2021/08/30 03:22:14;;;;;;;;;;;;;;;34.67;20.29;94136.88;4924715;29;19996;-65
2021/08/30 03:24:42;;;;;;;;;;;;;;;35.30;19.84;94146.41;4903137;29;19924;-60
2021/08/30 03:27:09;;;;;;;;;;;;;;;36.06;19.00;94145.59;4884107;29;19934;-57
2021/08/30 03:29:37;;;;;;;;;;;;;;;35.85;19.10;94146.50;4907034;29;19927;-51
2021/08/30 03:32:04;;;;;;;;;;;;;;;34.04;20.54;94154.28;4916341;29;19928;-49
2021/08/30 03:34:31;;;;;;;;;;;;;;;33.00;21.43;94154.25;4913763;29;20317;-52
2021/08/30 03:36:58;;;;;;;;;;;;;;;32.36;22.40;94153.47;4905500;29;19927;-52
2021/08/30 03:39:25;;;;;;;;;;;;;;;31.88;23.26;94155.16;4915807;29;19938;-49
2021/08/30 03:41:52;;;;;;;;;;;;;;;31.87;23.21;94164.44;4900607;29;20381;-52
2021/08/30 03:44:19;;;;;;;;;;;;;;;32.00;23.80;94161.78;4907170;29;19927;-50
2021/08/30 03:46:46;;;;;;;;;;;;;;;32.24;22.98;94170.38;4936616;29;19922;-50
2021/08/30 03:49:12;;;;;;;;;;;;;;;31.87;22.74;94169.84;4904343;29;19950;-55
2021/08/30 03:51:39;;;;;;;;;;;;;;;31.84;22.77;94165.31;4920348;29;19923;-59
2021/08/30 03:54:06;;;;;;;;;;;;;;;31.66;22.94;94164.97;4920147;29;20254;-55
2021/08/30 03:56:33;;;;;;;;;;;;;;;31.71;22.68;94169.88;4919449;29;20345;-45
2021/08/30 03:59:03;;;;;;;;;;;;;;;31.64;22.71;94170.06;4913600;29;19930;-45
2021/08/30 04:01:30;;;;;;;;;;;;;;;31.54;22.68;94176.50;4900297;29;19923;-45
2021/08/30 04:03:57;;;;;;;;;;;;;;;31.42;23.07;94171.78;4915720;29;19919;-45
2021/08/30 04:06:24;;;;;;;;;;;;;;;31.53;22.77;94173.03;4909221;29;19931;-59
2021/08/30 04:08:52;;;;;;;;;;;;;;;31.28;23.18;94176.34;4909182;29;19923;-53
2021/08/30 04:11:19;;;;;;;;;;;;;;;31.28;23.18;94173.66;4934196;29;19923;-59
2021/08/30 04:13:46;;;;;;;;;;;;;;;31.15;23.28;94175.47;4918168;29;20239;-58
2021/08/30 04:16:13;;;;;;;;;;;;;;;31.47;22.42;94173.97;4917815;29;19927;-57
2021/08/30 04:18:40;;;;;;;;;;;;;;;31.29;22.75;94169.78;4918947;29;19923;-59
2021/08/30 04:21:07;;;;;;;;;;;;;;;31.28;23.07;94170.97;4919419;29;19926;-60
2021/08/30 04:23:35;;;;;;;;;;;;;;;31.25;23.04;94169.09;4919239;29;20310;-58
2021/08/30 04:26:02;;;;;;;;;;;;;;;31.19;23.10;94170.03;4915373;29;19931;-59
2021/08/30 04:28:28;;;;;;;;;;;;;;;31.22;23.03;94175.31;4922513;29;19926;-61
2021/08/30 04:30:55;;;;;;;;;;;;;;;31.14;23.40;94178.59;4938527;29;19923;-54
2021/08/30 04:33:23;;;;;;;;;;;;;;;31.22;23.33;94174.56;4938462;29;19926;-45
2021/08/30 04:35:50;;;;;;;;;;;;;;;31.17;23.10;94180.47;4938249;29;19930;-46
2021/08/30 04:38:16;;;;;;;;;;;;;;;31.35;23.10;94177.34;4937185;29;19919;-44
2021/08/30 04:40:43;;;;;;;;;;;;;;;31.41;22.98;94181.81;4921046;29;19923;-60
2021/08/30 04:43:11;;;;;;;;;;;;;;;31.33;22.99;94175.09;4936033;29;19923;-54
2021/08/30 04:45:38;;;;;;;;;;;;;;;31.22;23.20;94185.38;4937815;29;19918;-49
2021/08/30 04:48:05;;;;;;;;;;;;;;;31.27;23.47;94182.94;4938080;29;19923;-48
2021/08/30 04:50:32;;;;;;;;;;;;;;;31.52;22.67;94186.97;4938392;29;19926;-49
2021/08/30 04:52:59;;;;;;;;;;;;;;;31.69;22.67;94191.16;4937954;29;19926;-49
2021/08/30 04:55:26;;;;;;;;;;;;;;;31.72;22.79;94187.63;4926442;29;19931;-48
2021/08/30 04:57:53;;;;;;;;;;;;;;;31.88;22.95;94187.59;4916356;29;19982;-48
2021/08/30 05:00:20;;;;;;;;;;;;;;;31.96;22.43;94192.78;4917776;29;19926;-54
2021/08/30 05:02:47;;;;;;;;;;;;;;;31.87;22.92;94186.06;4918757;29;19939;-56
2021/08/30 05:05:14;;;;;;;;;;;;;;;32.23;22.36;94190.50;4884606;29;19939;-46
2021/08/30 05:07:41;;;;;;;;;;;;;;;32.28;22.51;94184.59;4918869;29;19920;-51
2021/08/30 05:10:08;;;;;;;;;;;;;;;32.26;22.70;94188.91;4896245;29;19927;-60
2021/08/30 05:12:35;;;;;;;;;;;;;;;32.27;22.98;94190.41;4909829;29;20247;-56
2021/08/30 05:15:02;;;;;;;;;;;;;;;32.41;22.32;94190.03;4915334;29;20247;-55
2021/08/30 05:17:29;;;;;;;;;;;;;;;32.58;21.86;94188.00;4919069;29;19926;-54
2021/08/30 05:19:57;;;;;;;;;;;;;;;32.41;22.49;94195.44;4918370;29;19923;-54
2021/08/30 05:22:24;;;;;;;;;;;;;;;32.63;22.44;94190.16;4918587;29;19923;-57
2021/08/30 05:24:51;;;;;;;;;;;;;;;32.66;22.58;94194.72;4915642;29;19927;-59
2021/08/30 05:27:17;;;;;;;;;;;;;;;32.81;22.36;94190.44;4920868;29;20238;-55
2021/08/30 05:29:44;;;;;;;;;;;;;;;33.01;22.25;94212.59;4919164;29;19934;-52
2021/08/30 05:32:11;;;;;;;;;;;;;;;32.87;22.29;94199.53;4922036;29;19923;-61
2021/08/30 05:34:38;;;;;;;;;;;;;;;33.00;21.57;94202.97;4922553;29;19930;-55
2021/08/30 05:37:05;;;;;;;;;;;;;;;32.99;22.11;94212.28;4922745;29;20282;-54
2021/08/30 05:39:31;;;;;;;;;;;;;;;33.01;22.20;94201.78;4922456;29;19919;-45
2021/08/30 05:41:58;;;;;;;;;;;;;;;33.28;21.81;94206.72;4919133;29;19919;-46
2021/08/30 05:44:25;;;;;;;;;;;;;;;33.17;22.10;94197.44;4925942;29;19923;-45
2021/08/30 05:46:52;;;;;;;;;;;;;;;33.29;21.63;94196.66;4941574;29;20254;-44
2021/08/30 05:49:19;;;;;;;;;;;;;;;33.26;21.37;94200.25;4941282;29;19918;-44
2021/08/30 05:51:49;;;;;;;;;;;;;;;33.43;21.42;94196.22;4940591;29;19934;-45
2021/08/30 05:54:16;;;;;;;;;;;;;;;33.38;21.34;94194.09;4940661;29;19977;-45
2021/08/30 05:56:43;;;;;;;;;;;;;;;33.26;21.28;94202.94;4924691;29;19927;-45
2021/08/30 05:59:10;;;;;;;;;;;;;;;33.39;21.42;94190.94;4919683;29;19923;-45
2021/08/30 06:01:38;;;;;;;;;;;;;;;33.54;21.11;94202.06;4921867;29;20386;-44
2021/08/30 06:04:04;;;;;;;;;;;;;;;33.43;21.25;94201.66;4921098;29;20256;-45
2021/08/30 06:06:31;;;;;;;;;;;;;;;33.51;21.32;94202.94;4921542;29;19923;-57
2021/08/30 06:08:58;;;;;;;;;;;;;;;33.47;21.10;94191.44;4921847;29;19923;-53
2021/08/30 06:11:25;;;;;;;;;;;;;;;33.72;21.01;94199.50;4919392;29;19930;-54
2021/08/30 06:13:52;;;;;;;;;;;;;;;34.06;20.66;94186.38;4910915;29;20226;-56
2021/08/30 06:16:19;;;;;;;;;;;;;;;34.03;20.77;94193.44;4901452;29;19954;-57
2021/08/30 06:18:46;;;;;;;;;;;;;;;34.19;20.74;94204.13;4909546;29;19919;-59
2021/08/30 06:21:12;;;;;;;;;;;;;;;34.05;20.56;94196.47;4921948;29;20230;-62
2021/08/30 06:23:39;;;;;;;;;;;;;;;34.12;20.80;94201.66;4920340;29;19930;-60
2021/08/30 06:26:06;;;;;;;;;;;;;;;34.70;20.27;94201.13;4918006;29;19923;-58
2021/08/30 06:28:33;;;;;;;;;;;;;;;34.66;20.21;94211.38;4915101;29;20302;-51
2021/08/30 06:31:00;;;;;;;;;;;;;;;34.53;20.16;94202.53;4921801;29;20307;-57
2021/08/30 06:33:27;;;;;;;;;;;;;;;34.66;20.17;94205.94;4920906;29;19926;-59
2021/08/30 06:35:53;;;;;;;;;;;;;;;35.01;20.21;94203.84;4921264;29;20322;-51
2021/08/30 06:38:21;;;;;;;;;;;;;;;35.45;19.19;94198.28;4921389;29;19919;-57
2021/08/30 06:40:47;;;;;;;;;;;;;;;35.01;19.89;94203.84;4920285;29;19926;-58
2021/08/30 06:43:14;;;;;;;;;;;;;;;35.69;19.16;94206.59;4902554;29;19931;-65
2021/08/30 06:45:41;;;;;;;;;;;;;;;35.73;19.40;94205.25;4932108;29;19926;-62
2021/08/30 06:48:08;;;;;;;;;;;;;;;36.00;19.09;94209.97;4935996;29;19919;-64
2021/08/30 06:50:35;;;;;;;;;;;;;;;36.06;19.06;94210.09;4921477;29;20314;-62
2021/08/30 06:53:02;;;;;;;;;;;;;;;36.21;18.61;94223.88;4914505;29;19931;-62
2021/08/30 06:55:29;;;;;;;;;;;;;;;36.02;18.45;94221.16;4904109;29;19923;-64
2021/08/30 06:57:55;;;;;;;;;;;;;;;36.71;18.01;94223.19;4920341;29;19934;-46
2021/08/30 07:00:22;;;;;;;;;;;;;;;36.79;18.15;94220.16;4920178;29;19926;-47
2021/08/30 07:02:49;;;;;;;;;;;;;;;36.70;18.31;94216.25;4920318;29;19923;-50
2021/08/30 07:05:16;;;;;;;;;;;;;;;37.00;17.83;94216.47;4918947;29;19919;-52
2021/08/30 07:07:43;;;;;;;;;;;;;;;36.90;18.00;94218.44;4896075;29;19926;-52
2021/08/30 07:10:09;;;;;;;;;;;;;;;36.65;18.11;94219.56;4917743;29;19943;-62
2021/08/30 07:12:36;;;;;;;;;;;;;;;36.74;18.26;94222.28;4918119;29;19926;-47
2021/08/30 07:15:03;;;;;;;;;;;;;;;37.39;17.87;94211.16;4918651;29;19926;-47
2021/08/30 07:17:31;;;;;;;;;;;;;;;37.33;18.13;94209.06;4920902;29;19930;-46
2021/08/30 07:19:58;;;;;;;;;;;;;;;37.82;17.86;94223.47;4920616;29;19923;-48
2021/08/30 07:22:25;;;;;;;;;;;;;;;37.78;17.37;94220.94;4920356;29;19933;-51
2021/08/30 07:24:52;;;;;;;;;;;;;;;37.87;17.60;94215.41;4918612;29;19919;-46
2021/08/30 07:27:19;;;;;;;;;;;;;;;38.46;16.86;94220.97;4917872;29;19927;-46
2021/08/30 07:29:45;;;;;;;;;;;;;;;38.29;16.36;94213.72;4910486;29;19938;-49
2021/08/30 07:32:12;;;;;;;;;;;;;;;38.53;16.67;94220.63;4920725;29;19926;-51
2021/08/30 07:34:39;;;;;;;;;;;;;;;38.40;16.61;94217.41;4923486;29;19926;-48
2021/08/30 07:37:06;;;;;;;;;;;;;;;38.39;16.05;94210.44;4939318;29;19927;-49
2021/08/30 07:39:33;;;;;;;;;;;;;;;38.61;15.76;94215.53;4939480;29;20311;-47
2021/08/30 07:42:00;;;;;;;;;;;;;;;38.35;15.96;94220.78;4915963;29;19953;-48
2021/08/30 07:44:33;;;;;;;;;;;;;;;39.08;16.02;94225.53;4905670;29;19919;-53
2021/08/30 07:46:59;;;;;;;;;;;;;;;39.32;15.61;94221.88;4920487;29;20235;-48
2021/08/30 07:49:26;;;;;;;;;;;;;;;38.77;16.14;94217.78;4919709;29;19919;-51
2021/08/30 07:51:53;;;;;;;;;;;;;;;38.74;16.38;94224.19;4919651;29;19930;-51
2021/08/30 07:54:20;;;;;;;;;;;;;;;38.33;16.71;94227.94;4904817;29;19931;-51
2021/08/30 07:56:47;;;;;;;;;;;;;;;37.88;17.36;94237.97;4915971;29;20311;-48
2021/08/30 07:59:14;;;;;;;;;;;;;;;37.54;17.94;94223.63;4913209;29;19997;-51
2021/08/30 08:01:40;;;;;;;;;;;;;;;37.67;17.49;94231.56;4920195;29;19935;-49
2021/08/30 08:04:07;;;;;;;;;;;;;;;37.97;17.70;94235.91;4910063;29;19924;-48
2021/08/30 08:06:34;;;;;;;;;;;;;;;37.15;17.88;94241.06;4938977;29;19925;-56
2021/08/30 08:09:02;;;;;;;;;;;;;;;37.21;17.99;94242.69;4924722;29;19923;-50
2021/08/30 08:11:28;;;;;;;;;;;;;;;37.66;17.98;94235.50;4903051;29;19919;-48
2021/08/30 08:13:58;;;;;;;;;;;;;;;37.52;17.60;94236.22;4919614;29;19926;-49
2021/08/30 08:16:24;;;;;;;;;;;;;;;37.94;16.96;94236.84;4919628;29;19931;-49
2021/08/30 08:18:53;;;;;;;;;;;;;;;37.99;17.01;94242.88;4906346;29;19923;-45
2021/08/30 08:21:23;;;;;;;;;;;;;;;37.64;17.47;94246.13;4919736;29;19926;-46
2021/08/30 08:23:49;;;;;;;;;;;;;;;37.86;17.33;94246.63;4919654;29;19923;-46
2021/08/30 08:26:16;;;;;;;;;;;;;;;38.12;17.04;94240.66;4910488;29;19931;-45
2021/08/30 08:28:43;;;;;;;;;;;;;;;38.06;17.36;94242.53;4918964;29;19930;-46
2021/08/30 08:31:10;;;;;;;;;;;;;;;38.17;16.83;94242.78;4918577;29;19919;-46
2021/08/30 08:33:37;;;;;;;;;;;;;;;38.10;16.67;94243.13;4891478;29;20328;-46
2021/08/30 08:36:04;;;;;;;;;;;;;;;38.20;16.76;94242.59;4911935;29;20204;-46
2021/08/30 08:38:31;;;;;;;;;;;;;;;37.45;17.58;94233.81;4918971;29;19926;-46
2021/08/30 08:40:57;;;;;;;;;;;;;;;38.04;16.85;94239.53;4916961;29;19927;-46
2021/08/30 08:43:24;;;;;;;;;;;;;;;38.22;16.48;94234.69;4895923;29;19923;-46
2021/08/30 08:45:51;;;;;;;;;;;;;;;37.99;17.29;94240.16;4927292;29;20239;-46
2021/08/30 08:48:20;;;;;;;;;;;;;;;38.03;17.10;94238.03;4919112;29;19986;-45
2021/08/30 08:50:47;;;;;;;;;;;;;;;38.19;16.89;94229.41;4918296;29;19930;-45
2021/08/30 08:53:13;;;;;;;;;;;;;;;38.22;16.91;94225.75;4917962;29;19919;-46
2021/08/30 08:55:40;;;;;;;;;;;;;;;37.77;17.59;94235.78;4914935;29;19926;-46
2021/08/30 08:58:11;;;;;;;;;;;;;;;37.95;16.93;94227.44;4918271;29;19931;-45
2021/08/30 09:00:41;;;;;;;;;;;;;;;38.31;16.53;94225.69;4912826;29;20242;-45
2021/08/30 09:03:18;;;;;;;;;;;;;;;38.80;16.31;94224.31;4918514;29;19930;-45
2021/08/30 09:05:45;;;;;;;;;;;;;;;38.08;16.54;94223.72;4901476;29;19927;-46
2021/08/30 09:08:28;;;;;;;;;;;;;;;38.48;16.83;94226.72;4916636;29;19919;-47
2021/08/30 09:10:55;;;;;;;;;;;;;;;38.80;16.46;94216.88;4925986;29;19930;-47
2021/08/30 09:13:26;;;;;;;;;;;;;;;38.47;16.68;94227.19;4918445;29;19919;-47
2021/08/30 09:15:52;;;;;;;;;;;;;;;37.80;16.77;94223.94;4918603;29;19926;-45
2021/08/30 09:18:21;;;;;;;;;;;;;;;37.57;17.13;94224.66;4898795;29;19919;-47
2021/08/30 09:20:48;;;;;;;;;;;;;;;38.21;16.27;94218.78;4931875;29;19939;-46
2021/08/30 09:23:15;;;;;;;;;;;;;;;38.32;16.15;94226.44;4925700;29;20203;-45
2021/08/30 09:25:42;;;;;;;;;;;;;;;38.02;16.68;94225.59;4928953;29;19923;-46
2021/08/30 09:28:09;;;;;;;;;;;;;;;38.20;16.96;94220.00;4918702;29;19930;-46
2021/08/30 09:30:36;;;;;;;;;;;;;;;38.50;16.42;94226.25;4915058;29;19927;-47
2021/08/30 09:33:03;;;;;;;;;;;;;;;38.79;16.50;94231.00;4912188;29;19924;-56
2021/08/30 09:35:30;;;;;;;;;;;;;;;37.80;17.09;94225.91;4900089;29;19927;-47
2021/08/30 09:37:57;;;;;;;;;;;;;;;36.25;18.91;94216.28;4899985;29;20345;-48
2021/08/30 09:40:24;;;;;;;;;;;;;;;37.95;16.76;94218.50;4928429;29;19930;-45
2021/08/30 09:42:53;;;;;;;;;;;;;;;38.58;16.40;94221.94;4913543;29;19919;-45
2021/08/30 09:45:21;;;;;;;;;;;;;;;37.92;16.37;94217.47;4918879;29;19935;-45
2021/08/30 09:47:55;;;;;;;;;;;;;;;38.52;16.44;94213.66;4917811;29;19926;-45
2021/08/30 09:50:36;;;;;;;;;;;;;;;38.47;16.40;94217.00;4918536;29;19922;-44
2021/08/30 09:53:03;;;;;;;;;;;;;;;38.39;16.38;94215.13;4903316;29;19997;-46
2021/08/30 09:55:31;;;;;;;;;;;;;;;38.79;16.16;94217.34;4918478;29;19923;-46
2021/08/30 09:57:58;;;;;;;;;;;;;;;38.35;16.47;94218.06;4918630;29;19934;-45
2021/08/30 10:00:25;;;;;;;;;;;;;;;38.04;16.75;94214.97;4915320;29;19930;-46
2021/08/30 10:02:53;;;;;;;;;;;;;;;38.38;16.71;94219.84;4917274;29;19923;-45
2021/08/30 10:05:21;;;;;;;;;;;;;;;38.54;16.47;94216.66;4917443;29;19919;-46
2021/08/30 10:07:48;;;;;;;;;;;;;;;38.14;16.21;94210.94;4918098;29;20315;-46
2021/08/30 10:10:15;;;;;;;;;;;;;;;38.41;16.23;94213.44;4917831;29;19923;-46
2021/08/30 10:12:43;;;;;;;;;;;;;;;38.50;15.85;94210.59;4916586;29;20345;-46
2021/08/30 10:15:11;;;;;;;;;;;;;;;39.02;16.41;94207.47;4902474;29;19926;-46
2021/08/30 10:17:45;;;;;;;;;;;;;;;38.89;16.05;94205.06;4908516;29;19923;-50
2021/08/30 10:20:13;;;;;;;;;;;;;;;38.82;16.12;94205.47;4940516;29;19919;-49
2021/08/30 10:22:40;;;;;;;;;;;;;;;38.89;16.78;94210.53;4939771;29;19929;-51
2021/08/30 10:25:16;;;;;;;;;;;;;;;39.10;16.16;94212.13;4920223;29;19922;-48
2021/08/30 10:27:52;;;;;;;;;;;;;;;38.07;16.16;94203.13;4917663;29;20307;-46
2021/08/30 10:30:19;;;;;;;;;;;;;;;38.63;16.18;94204.16;4921805;29;19930;-46
2021/08/30 10:32:46;;;;;;;;;;;;;;;38.95;16.31;94208.63;4921388;29;20303;-59
2021/08/30 10:35:14;;;;;;;;;;;;;;;38.56;16.38;94202.53;4902170;29;19920;-47
2021/08/30 10:38:07;;;;;;;;;;;;;;;38.50;16.43;94199.69;4921278;29;19930;-52
2021/08/30 10:40:35;;;;;;;;;;;;;;;38.30;16.17;94202.34;4911618;29;19950;-53
2021/08/30 10:43:04;;;;;;;;;;;;;;;38.27;16.22;94208.75;4910559;29;19919;-52
2021/08/30 10:45:35;;;;;;;;;;;;;;;38.44;16.58;94209.78;4921111;29;19930;-52
2021/08/30 10:48:03;;;;;;;;;;;;;;;38.56;16.37;94208.75;4920545;29;19927;-49
2021/08/30 10:50:30;;;;;;;;;;;;;;;38.58;16.22;94210.25;4921237;29;20429;-46
2021/08/30 10:53:08;;;;;;;;;;;;;;;38.35;16.14;94204.41;4920305;29;19923;-46
2021/08/30 10:55:36;;;;;;;;;;;;;;;37.82;16.47;94212.56;4917862;29;19919;-47
2021/08/30 10:58:11;;;;;;;;;;;;;;;37.99;16.44;94215.59;4895835;29;19932;-47
2021/08/30 11:00:38;;;;;;;;;;;;;;;37.99;16.12;94193.78;4895483;29;19924;-47
2021/08/30 11:03:04;;;;;;;;;;;;;;;38.40;16.08;94198.28;4907821;29;19926;-47
2021/08/30 11:05:31;;;;;;;;;;;;;;;38.53;16.09;94204.22;4920945;29;19923;-48
2021/08/30 11:07:58;;;;;;;;;;;;;;;37.82;16.14;94207.13;4920890;29;19923;-47
2021/08/30 11:10:28;;;;;;;;;;;;;;;37.75;16.39;94205.50;4921175;29;19930;-48
2021/08/30 11:12:56;;;;;;;;;;;;;;;37.81;16.83;94211.81;4912584;29;20319;-47
2021/08/30 11:15:28;;;;;;;;;;;;;;;37.66;16.77;94206.28;4920320;29;19919;-57
2021/08/30 11:17:57;;;;;;;;;;;;;;;37.51;17.43;94215.63;4920393;29;20234;-58
2021/08/30 11:20:24;;;;;;;;;;;;;;;37.92;17.19;94222.19;4920456;29;19930;-61
2021/08/30 11:22:52;;;;;;;;;;;;;;;38.40;16.50;94205.72;4920056;29;19923;-60
2021/08/30 11:25:19;;;;;;;;;;;;;;;37.57;16.56;94208.31;4916854;29;19953;-48
2021/08/30 11:27:45;;;;;;;;;;;;;;;38.36;16.06;94213.34;4918340;29;19927;-48
2021/08/30 11:30:13;;;;;;;;;;;;;;;38.52;16.33;94202.72;4901855;29;20238;-51
2021/08/30 11:32:42;;;;;;;;;;;;;;;38.14;16.60;94214.41;4919660;29;19927;-53
2021/08/30 11:35:09;;;;;;;;;;;;;;;38.33;16.44;94206.84;4920240;29;19930;-46
2021/08/30 11:37:36;;;;;;;;;;;;;;;37.87;16.88;94209.94;4906783;29;20266;-47
2021/08/30 11:40:04;;;;;;;;;;;;;;;38.16;16.24;94203.78;4939089;29;19919;-51
2021/08/30 11:42:32;;;;;;;;;;;;;;;38.17;16.77;94196.38;4923061;29;19930;-48
2021/08/30 11:45:00;;;;;;;;;;;;;;;38.27;16.73;94208.00;4916402;29;19919;-46
2021/08/30 11:47:27;;;;;;;;;;;;;;;38.33;16.63;94206.84;4920137;29;19934;-46
2021/08/30 11:49:55;;;;;;;;;;;;;;;38.13;16.22;94198.53;4920407;29;19919;-46
2021/08/30 11:52:22;;;;;;;;;;;;;;;38.11;16.12;94198.22;4920187;29;19919;-46
2021/08/30 11:54:56;;;;;;;;;;;;;;;37.93;16.33;94202.63;4918545;29;19919;-46
2021/08/30 11:57:23;;;;;;;;;;;;;;;37.82;16.24;94196.94;4917715;29;20349;-45
2021/08/30 11:59:51;;;;;;;;;;;;;;;37.86;16.71;94204.97;4919381;29;19927;-46
2021/08/30 12:02:17;;;;;;;;;;;;;;;37.74;16.70;94195.81;4919582;29;19927;-46
2021/08/30 12:04:44;;;;;;;;;;;;;;;38.38;16.53;94198.00;4919891;29;19926;-47
2021/08/30 12:07:13;;;;;;;;;;;;;;;37.83;16.57;94190.28;4919586;29;19923;-45
2021/08/30 12:09:44;;;;;;;;;;;;;;;37.85;16.78;94185.09;4919184;29;19923;-45
2021/08/30 12:12:21;;;;;;;;;;;;;;;38.19;16.62;94185.75;4916074;29;19952;-46
2021/08/30 12:14:58;;;;;;;;;;;;;;;37.73;16.56;94183.38;4914920;29;19923;-45
2021/08/30 12:17:25;;;;;;;;;;;;;;;37.71;16.57;94183.09;4919576;29;19927;-46
2021/08/30 12:19:59;;;;;;;;;;;;;;;38.02;16.24;94181.94;4919299;29;19919;-48
2021/08/30 12:22:30;;;;;;;;;;;;;;;37.78;16.16;94174.56;4919478;29;19923;-45
2021/08/30 12:25:01;;;;;;;;;;;;;;;37.41;16.45;94170.53;4917064;29;19930;-45
2021/08/30 12:27:34;;;;;;;;;;;;;;;37.64;16.48;94175.25;4918590;29;19954;-45
2021/08/30 12:30:27;;;;;;;;;;;;;;;37.36;16.35;94177.41;4919619;29;19934;-46
2021/08/30 12:33:08;;;;;;;;;;;;;;;37.55;16.37;94181.53;4915646;29;19927;-46
2021/08/30 12:35:39;;;;;;;;;;;;;;;37.17;16.59;94171.25;4919570;29;19950;-46
2021/08/30 12:38:07;;;;;;;;;;;;;;;37.16;16.84;94175.19;4896134;29;19934;-46
2021/08/30 12:40:35;;;;;;;;;;;;;;;37.45;16.56;94177.31;4900658;29;19923;-46
2021/08/30 12:43:02;;;;;;;;;;;;;;;37.28;16.95;94171.53;4913858;29;19926;-47
2021/08/30 12:45:29;;;;;;;;;;;;;;;37.30;16.35;94171.84;4938086;29;19929;-45
2021/08/30 12:47:55;;;;;;;;;;;;;;;37.49;16.32;94174.44;4938196;29;19930;-61
2021/08/30 12:50:23;;;;;;;;;;;;;;;37.50;16.30;94167.78;4921382;29;19919;-52
2021/08/30 12:52:50;;;;;;;;;;;;;;;37.31;16.72;94167.88;4937822;29;19923;-46
2021/08/30 12:55:16;;;;;;;;;;;;;;;37.13;16.71;94162.50;4932194;29;19919;-45
2021/08/30 12:57:43;;;;;;;;;;;;;;;36.69;16.80;94160.25;4914636;29;19927;-46
2021/08/30 13:00:12;;;;;;;;;;;;;;;37.17;17.09;94160.38;4916692;29;19949;-46